createdAt,value
2018-10-02T00:02:22.345Z,9.00
2018-10-02T00:04:50.342Z,8.87
2018-10-02T00:07:18.812Z,8.27
2018-10-02T00:09:47.111Z,7.90
2018-10-02T00:12:20.371Z,8.73
2018-10-02T00:14:48.561Z,8.33
2018-10-02T00:17:16.609Z,8.10
2018-10-02T00:19:44.758Z,9.57
2018-10-02T00:22:12.736Z,8.83
2018-10-02T00:24:40.994Z,8.50
2018-10-02T00:27:09.085Z,8.30
2018-10-02T00:29:37.374Z,7.50
2018-10-02T00:32:05.349Z,7.73
2018-10-02T00:34:33.746Z,8.23
2018-10-02T00:37:01.706Z,7.60
2018-10-02T00:39:30.070Z,7.63
2018-10-02T00:41:58.077Z,7.53
2018-10-02T00:44:25.981Z,7.77
2018-10-02T00:46:54.877Z,8.07
2018-10-02T00:49:22.885Z,8.00
2018-10-02T00:51:50.974Z,7.43
2018-10-02T00:54:19.216Z,8.27
2018-10-02T00:56:47.411Z,7.73
2018-10-02T00:59:15.499Z,8.13
2018-10-02T01:01:43.448Z,8.83
2018-10-02T01:04:11.737Z,9.50
2018-10-02T01:06:39.925Z,8.33
2018-10-02T01:09:11.725Z,9.53
2018-10-02T01:11:40.670Z,8.60
2018-10-02T01:14:08.535Z,7.83
2018-10-02T01:16:36.612Z,8.20
2018-10-02T01:19:05.727Z,7.93
2018-10-02T01:21:34.568Z,8.00
2018-10-02T01:24:02.626Z,8.00
2018-10-02T01:26:30.570Z,8.20
2018-10-02T01:28:58.713Z,8.77
2018-10-02T01:31:26.659Z,7.50
2018-10-02T01:33:54.593Z,9.43
2018-10-02T01:36:22.556Z,9.10
2018-10-02T01:38:50.464Z,8.57
2018-10-02T01:41:18.389Z,8.73
2018-10-02T01:43:46.260Z,8.83
2018-10-02T01:46:14.206Z,9.50
2018-10-02T01:48:42.297Z,9.60
2018-10-02T01:51:10.931Z,8.50
2018-10-02T01:53:38.938Z,8.43
2018-10-02T01:56:06.941Z,8.87
2018-10-02T01:58:35.112Z,7.60
2018-10-02T02:01:03.103Z,9.23
2018-10-02T02:03:31.557Z,8.97
2018-10-02T02:05:59.721Z,9.13
2018-10-02T02:08:27.705Z,9.87
2018-10-02T02:10:55.853Z,10.17
2018-10-02T02:13:23.850Z,9.67
2018-10-02T02:15:51.856Z,10.27
2018-10-02T02:18:19.772Z,10.17
2018-10-02T02:20:47.777Z,10.83
2018-10-02T02:23:15.801Z,10.63
2018-10-02T02:25:43.763Z,10.83
2018-10-02T02:28:11.721Z,11.40
2018-10-02T02:30:39.704Z,10.43
2018-10-02T02:33:07.618Z,11.33
2018-10-02T02:35:35.918Z,10.10
2018-10-02T02:38:04.036Z,11.27
2018-10-02T02:40:31.943Z,9.20
2018-10-02T02:42:59.868Z,11.20
2018-10-02T02:45:27.890Z,11.23
2018-10-02T02:48:01.218Z,12.97
2018-10-02T02:50:34.527Z,12.00
2018-10-02T02:53:05.800Z,12.40
2018-10-02T02:55:33.754Z,12.90
2018-10-02T02:58:01.865Z,12.60
2018-10-02T03:00:29.814Z,12.83
2018-10-02T03:02:57.757Z,11.40
2018-10-02T03:05:25.650Z,11.57
2018-10-02T03:07:53.676Z,11.20
2018-10-02T03:10:21.900Z,12.00
2018-10-02T03:12:49.818Z,12.20
2018-10-02T03:15:17.990Z,12.47
2018-10-02T03:17:45.955Z,12.13
2018-10-02T03:20:13.907Z,12.80
2018-10-02T03:22:41.877Z,11.73
2018-10-02T03:25:09.792Z,12.20
2018-10-02T03:27:37.905Z,12.47
2018-10-02T03:30:05.861Z,11.40
2018-10-02T03:32:33.872Z,11.97
2018-10-02T03:35:01.918Z,11.47
2018-10-02T03:37:30.002Z,14.27
2018-10-02T03:39:58.062Z,13.17
2018-10-02T03:42:26.056Z,13.27
2018-10-02T03:44:53.971Z,11.83
2018-10-02T03:47:22.026Z,11.73
2018-10-02T03:49:49.916Z,13.37
2018-10-02T03:52:17.995Z,12.63
2018-10-02T03:54:45.865Z,12.90
2018-10-02T03:57:13.775Z,13.17
2018-10-02T03:59:41.813Z,15.13
2018-10-02T04:02:09.775Z,13.70
2018-10-02T04:04:37.666Z,15.73
2018-10-02T04:07:05.624Z,15.97
2018-10-02T04:09:33.538Z,15.43
2018-10-02T04:12:01.641Z,15.27
2018-10-02T04:14:29.891Z,14.43
2018-10-02T04:16:57.993Z,14.90
2018-10-02T04:19:25.882Z,13.60
2018-10-02T04:21:53.867Z,13.33
2018-10-02T04:24:22.159Z,14.53
2018-10-02T04:26:50.141Z,12.80
2018-10-02T04:29:18.054Z,12.73
2018-10-02T04:31:46.029Z,13.30
2018-10-02T04:34:14.093Z,11.70
2018-10-02T04:36:42.054Z,12.10
2018-10-02T04:39:09.949Z,14.77
2018-10-02T04:41:38.031Z,15.60
2018-10-02T04:44:05.992Z,14.57
2018-10-02T04:46:36.798Z,14.73
2018-10-02T04:49:05.014Z,12.17
2018-10-02T04:51:33.463Z,14.77
2018-10-02T04:54:01.961Z,14.47
2018-10-02T04:56:29.941Z,17.77
2018-10-02T04:58:57.990Z,16.10
2018-10-02T05:01:26.029Z,19.90
2018-10-02T05:03:54.000Z,17.10
2018-10-02T05:06:22.007Z,18.37
2018-10-02T05:08:50.370Z,16.30
2018-10-02T05:11:19.002Z,16.17
2018-10-02T05:13:47.063Z,14.53
2018-10-02T05:16:15.107Z,13.60
2018-10-02T05:18:43.079Z,11.40
2018-10-02T05:21:11.060Z,10.57
2018-10-02T05:23:39.110Z,11.17
2018-10-02T05:26:07.135Z,11.47
2018-10-02T05:28:35.141Z,14.10
2018-10-02T05:31:03.174Z,20.50
2018-10-02T05:33:31.433Z,18.57
2018-10-02T05:35:59.475Z,12.77
2018-10-02T05:38:27.716Z,12.63
2018-10-02T05:40:55.665Z,12.27
2018-10-02T05:43:23.639Z,12.37
2018-10-02T05:45:51.622Z,12.77
2018-10-02T05:48:19.601Z,12.97
2018-10-02T05:50:47.541Z,13.90
2018-10-02T05:53:15.525Z,13.23
2018-10-02T05:55:43.573Z,13.17
2018-10-02T05:58:11.493Z,14.27
2018-10-02T06:00:39.758Z,13.97
2018-10-02T06:03:07.841Z,14.63
2018-10-02T06:05:35.812Z,17.10
2018-10-02T06:08:04.103Z,15.73
2018-10-02T06:10:32.307Z,15.70
2018-10-02T06:13:00.521Z,17.93
2018-10-02T06:15:29.685Z,19.97
2018-10-02T06:17:57.918Z,20.80
2018-10-02T06:20:27.021Z,29.33
2018-10-02T06:22:55.243Z,27.40
2018-10-02T06:25:23.415Z,27.30
2018-10-02T06:27:52.896Z,24.37
2018-10-02T06:30:29.207Z,18.67
2018-10-02T06:32:57.347Z,19.47
2018-10-02T06:35:25.599Z,17.43
2018-10-02T06:37:53.870Z,18.20
2018-10-02T06:40:22.154Z,15.50
2018-10-02T06:42:50.232Z,17.03
2018-10-02T06:45:18.967Z,18.80
2018-10-02T06:47:47.025Z,16.47
2018-10-02T06:50:15.401Z,18.60
2018-10-02T06:52:50.161Z,16.93
2018-10-02T06:55:21.184Z,15.80
2018-10-02T06:57:54.619Z,19.63
2018-10-02T07:00:24.476Z,17.80
2018-10-02T07:02:52.761Z,17.27
2018-10-02T07:05:21.231Z,16.73
2018-10-02T07:07:49.213Z,16.13
2018-10-02T07:10:17.254Z,14.80
2018-10-02T07:12:45.410Z,15.73
2018-10-02T07:15:13.615Z,27.40
2018-10-02T07:17:41.611Z,20.13
2018-10-02T07:20:09.631Z,17.33
2018-10-02T07:22:37.633Z,15.03
2018-10-02T07:25:06.339Z,13.87
2018-10-02T07:27:34.280Z,17.53
2018-10-02T07:30:02.262Z,16.60
2018-10-02T07:32:30.548Z,14.70
2018-10-02T07:34:58.739Z,14.33
2018-10-02T07:37:27.762Z,14.13
2018-10-02T07:39:56.071Z,16.03
2018-10-02T07:42:24.185Z,16.47
2018-10-02T07:44:52.804Z,13.97
2018-10-02T07:47:20.808Z,15.90
2018-10-02T07:49:48.862Z,16.07
2018-10-02T07:52:16.929Z,15.67
2018-10-02T07:54:44.946Z,15.60
2018-10-02T07:57:13.027Z,14.87
2018-10-02T07:59:41.185Z,15.33
2018-10-02T08:02:09.039Z,15.43
2018-10-02T08:04:37.481Z,15.27
2018-10-02T08:07:05.836Z,14.07
2018-10-02T08:09:34.058Z,15.13
2018-10-02T08:12:02.212Z,13.50
2018-10-02T08:14:30.314Z,13.73
2018-10-02T08:16:58.778Z,13.47
2018-10-02T08:19:26.945Z,14.83
2018-10-02T08:21:55.036Z,12.10
2018-10-02T08:24:23.164Z,14.77
2018-10-02T08:26:51.202Z,13.77
2018-10-02T08:29:19.274Z,15.37
2018-10-02T08:31:47.309Z,14.07
2018-10-02T08:34:15.447Z,15.33
2018-10-02T08:36:43.692Z,14.23
2018-10-02T08:39:12.283Z,13.57
2018-10-02T08:41:40.612Z,14.13
2018-10-02T08:44:08.850Z,14.53
2018-10-02T08:46:37.333Z,15.43
2018-10-02T08:49:05.670Z,14.20
2018-10-02T08:51:39.696Z,14.80
2018-10-02T08:54:10.831Z,14.97
2018-10-02T08:56:38.850Z,16.30
2018-10-02T08:59:16.147Z,15.87
2018-10-02T09:01:44.206Z,14.60
2018-10-02T09:04:12.362Z,16.00
2018-10-02T09:06:40.443Z,14.03
2018-10-02T09:09:10.145Z,13.90
2018-10-02T09:11:38.327Z,13.70
2018-10-02T09:14:06.811Z,14.50
2018-10-02T09:16:34.930Z,14.80
2018-10-02T09:19:03.723Z,16.70
2018-10-02T09:21:32.377Z,15.03
2018-10-02T09:24:00.938Z,14.60
2018-10-02T09:26:28.957Z,15.83
2018-10-02T09:28:56.886Z,15.27
2018-10-02T09:31:30.266Z,14.47
2018-10-02T09:34:03.825Z,13.67
2018-10-02T09:36:37.427Z,14.13
2018-10-02T09:39:12.507Z,13.93
2018-10-02T09:41:45.949Z,12.40
2018-10-02T09:44:13.872Z,12.93
2018-10-02T09:46:41.828Z,13.53
2018-10-02T09:49:09.777Z,13.43
2018-10-02T09:51:37.747Z,13.23
2018-10-02T09:54:05.782Z,12.50
2018-10-02T09:56:39.361Z,12.10
2018-10-02T09:59:07.381Z,12.67
2018-10-02T10:01:40.752Z,13.17
2018-10-02T10:04:08.784Z,11.13
2018-10-02T10:06:37.034Z,10.80
2018-10-02T10:09:06.150Z,12.00
2018-10-02T10:11:34.080Z,10.27
2018-10-02T10:14:02.296Z,9.90
2018-10-02T10:16:30.333Z,11.10
2018-10-02T10:18:58.264Z,11.80
2018-10-02T10:21:26.144Z,11.27
2018-10-02T10:23:54.358Z,11.43
2018-10-02T10:26:22.977Z,10.73
2018-10-02T10:28:51.102Z,12.00
2018-10-02T10:31:19.007Z,12.67
2018-10-02T10:33:47.194Z,11.60
2018-10-02T10:36:15.803Z,11.83
2018-10-02T10:38:43.784Z,12.60
2018-10-02T10:41:12.018Z,12.53
2018-10-02T10:43:40.005Z,12.40
2018-10-02T10:46:08.214Z,11.67
2018-10-02T10:48:36.364Z,9.30
2018-10-02T10:51:04.313Z,12.03
2018-10-02T10:53:32.431Z,10.07
2018-10-02T10:56:00.467Z,8.30
2018-10-02T10:58:28.462Z,7.70
2018-10-02T11:00:56.558Z,8.17
2018-10-02T11:03:24.496Z,7.93
2018-10-02T11:05:52.630Z,6.83
2018-10-02T11:08:21.183Z,6.10
2018-10-02T11:10:49.239Z,6.83
2018-10-02T11:13:17.365Z,6.97
2018-10-02T11:15:45.316Z,7.23
2018-10-02T11:18:13.391Z,6.90
2018-10-02T11:20:41.575Z,6.17
2018-10-02T11:23:11.920Z,6.60
2018-10-02T11:25:40.119Z,6.67
2018-10-02T11:28:08.155Z,6.10
2018-10-02T11:30:36.165Z,6.93
2018-10-02T11:33:04.250Z,5.93
2018-10-02T11:35:32.675Z,6.47
2018-10-02T11:38:00.717Z,6.40
2018-10-02T11:40:30.411Z,6.40
2018-10-02T11:42:58.386Z,6.13
2018-10-02T11:45:26.626Z,5.83
2018-10-02T11:47:54.546Z,6.00
2018-10-02T11:50:23.949Z,5.87
2018-10-02T11:52:51.957Z,6.30
2018-10-02T11:55:21.852Z,6.13
2018-10-02T11:57:51.932Z,6.13
2018-10-02T12:00:20.316Z,6.27
2018-10-02T12:02:48.412Z,6.03
2018-10-02T12:05:16.466Z,6.53
2018-10-02T12:07:44.343Z,5.90
2018-10-02T12:10:12.542Z,6.57
2018-10-02T12:12:40.598Z,12.90
2018-10-02T12:15:09.695Z,7.97
2018-10-02T12:17:37.763Z,8.87
2018-10-02T12:20:06.311Z,7.07
2018-10-02T12:22:34.222Z,6.57
2018-10-02T12:25:02.381Z,6.50
2018-10-02T12:27:34.638Z,5.67
2018-10-02T12:30:02.916Z,6.00
2018-10-02T12:32:31.371Z,5.93
2018-10-02T12:35:00.703Z,6.13
2018-10-02T12:37:29.352Z,5.93
2018-10-02T12:40:01.634Z,5.73
2018-10-02T12:42:30.148Z,5.93
2018-10-02T12:44:58.102Z,6.00
2018-10-02T12:47:26.327Z,6.03
2018-10-02T12:49:56.158Z,6.40
2018-10-02T12:52:24.231Z,6.43
2018-10-02T12:54:52.450Z,5.70
2018-10-02T12:57:20.823Z,5.73
2018-10-02T12:59:50.675Z,5.60
2018-10-02T13:02:18.998Z,5.75
2018-10-02T13:04:47.081Z,5.30
2018-10-02T13:07:15.826Z,5.97
2018-10-02T13:09:43.872Z,5.93
2018-10-02T13:12:11.849Z,6.03
2018-10-02T13:14:39.789Z,7.30
2018-10-02T13:17:07.888Z,6.28
2018-10-02T13:19:36.331Z,5.70
2018-10-02T13:22:04.386Z,5.70
2018-10-02T13:24:33.683Z,5.10
2018-10-02T13:27:01.781Z,6.30
2018-10-02T13:29:31.301Z,5.53
2018-10-02T13:31:59.509Z,6.63
2018-10-02T13:34:27.616Z,5.37
2018-10-02T13:36:55.869Z,5.50
2018-10-02T13:39:23.818Z,5.93
2018-10-02T13:41:54.138Z,5.90
2018-10-02T13:44:23.137Z,5.40
2018-10-02T13:46:51.484Z,5.23
2018-10-02T13:49:19.623Z,5.40
2018-10-02T13:51:48.382Z,5.57
2018-10-02T13:54:17.149Z,6.43
2018-10-02T13:56:45.849Z,6.50
2018-10-02T13:59:14.162Z,5.40
2018-10-02T14:01:42.297Z,5.47
2018-10-02T14:04:10.865Z,5.73
2018-10-02T14:06:41.199Z,5.77
2018-10-02T14:09:09.411Z,5.43
2018-10-02T14:11:37.370Z,6.10
2018-10-02T14:14:05.501Z,6.30
2018-10-02T14:16:33.505Z,6.77
2018-10-02T14:19:01.591Z,6.83
2018-10-02T14:21:31.534Z,5.90
2018-10-02T14:23:59.700Z,7.23
2018-10-02T14:26:27.816Z,6.13
2018-10-02T14:28:55.777Z,6.30
2018-10-02T14:31:23.751Z,6.17
2018-10-02T14:33:51.931Z,6.00
2018-10-02T14:36:20.206Z,7.20
2018-10-02T14:38:48.312Z,6.50
2018-10-02T14:41:16.389Z,6.00
2018-10-02T14:43:44.461Z,7.23
2018-10-02T14:46:12.894Z,6.47
2018-10-02T14:48:40.889Z,5.43
2018-10-02T14:51:08.916Z,6.50
2018-10-02T14:53:37.100Z,6.70
2018-10-02T14:56:05.020Z,5.63
2018-10-02T14:58:33.006Z,6.30
2018-10-02T15:01:00.927Z,6.03
2018-10-02T15:03:28.900Z,7.13
2018-10-02T15:05:57.021Z,6.53
2018-10-02T15:08:25.024Z,5.97
2018-10-02T15:10:54.030Z,6.70
2018-10-02T15:13:22.042Z,6.10
2018-10-02T15:15:50.043Z,5.87
2018-10-02T15:18:18.057Z,7.17
2018-10-02T15:20:46.210Z,5.60
2018-10-02T15:23:14.316Z,6.10
2018-10-02T15:25:42.419Z,6.53
2018-10-02T15:28:11.379Z,7.00
2018-10-02T15:30:39.460Z,7.03
2018-10-02T15:33:08.449Z,6.97
2018-10-02T15:35:36.434Z,7.37
2018-10-02T15:38:04.489Z,6.87
2018-10-02T15:40:32.827Z,6.67
2018-10-02T15:43:01.644Z,6.77
2018-10-02T15:45:29.649Z,6.87
2018-10-02T15:47:57.862Z,5.90
2018-10-02T15:50:26.199Z,6.20
2018-10-02T15:52:54.129Z,6.70
2018-10-02T15:55:22.317Z,6.53
2018-10-02T15:57:50.399Z,6.23
2018-10-02T16:00:18.806Z,6.27
2018-10-02T16:02:47.306Z,6.40
2018-10-02T16:05:15.254Z,6.40
2018-10-02T16:07:43.194Z,6.97
2018-10-02T16:10:11.406Z,5.90
2018-10-02T16:12:39.335Z,6.57
2018-10-02T16:15:07.344Z,6.83
2018-10-02T16:17:35.410Z,6.73
2018-10-02T16:20:03.593Z,5.63
2018-10-02T16:22:31.506Z,5.93
2018-10-02T16:24:59.661Z,6.97
2018-10-02T16:27:27.792Z,6.37
2018-10-02T16:29:55.692Z,6.37
2018-10-02T16:32:23.779Z,6.30
2018-10-02T16:34:51.869Z,5.50
2018-10-02T16:37:19.855Z,5.97
2018-10-02T16:39:49.182Z,6.33
2018-10-02T16:42:17.989Z,7.67
2018-10-02T16:44:45.934Z,7.57
2018-10-02T16:47:14.016Z,7.17
2018-10-02T16:49:41.875Z,7.87
2018-10-02T16:52:09.914Z,6.87
2018-10-02T16:54:37.850Z,8.17
2018-10-02T16:57:06.097Z,8.50
2018-10-02T16:59:34.056Z,7.60
2018-10-02T17:02:01.995Z,6.87
2018-10-02T17:04:30.143Z,7.07
2018-10-02T17:06:58.074Z,6.67
2018-10-02T17:09:26.133Z,6.40
2018-10-02T17:11:54.307Z,8.07
2018-10-02T17:14:22.333Z,6.97
2018-10-02T17:16:50.362Z,6.17
2018-10-02T17:19:18.449Z,7.17
2018-10-02T17:21:46.511Z,6.97
2018-10-02T17:24:14.611Z,7.30
2018-10-02T17:26:43.933Z,7.53
2018-10-02T17:29:11.920Z,7.43
2018-10-02T17:31:39.946Z,6.97
2018-10-02T17:34:07.914Z,7.57
2018-10-02T17:36:40.390Z,7.97
2018-10-02T17:39:10.168Z,7.83
2018-10-02T17:41:41.608Z,7.97
2018-10-02T17:44:09.883Z,7.77
2018-10-02T17:46:37.834Z,7.47
2018-10-02T17:49:07.198Z,8.00
2018-10-02T17:51:35.095Z,7.90
2018-10-02T17:54:03.065Z,8.00
2018-10-02T17:56:31.026Z,7.80
2018-10-02T17:58:58.951Z,8.60
2018-10-02T18:01:27.218Z,8.07
2018-10-02T18:03:55.177Z,8.47
2018-10-02T18:06:23.202Z,8.57
2018-10-02T18:08:51.284Z,8.50
2018-10-02T18:11:22.961Z,8.47
2018-10-02T18:13:50.912Z,8.50
2018-10-02T18:16:18.871Z,9.30
2018-10-02T18:18:46.875Z,9.50
2018-10-02T18:21:14.819Z,10.77
2018-10-02T18:23:42.844Z,11.80
2018-10-02T18:26:10.869Z,11.43
2018-10-02T18:28:39.935Z,10.53
2018-10-02T18:31:08.134Z,11.50
2018-10-02T18:33:36.189Z,11.23
2018-10-02T18:36:04.268Z,10.23
2018-10-02T18:38:32.224Z,9.23
2018-10-02T18:41:00.266Z,8.30
2018-10-02T18:43:28.497Z,8.20
2018-10-02T18:45:56.637Z,8.10
2018-10-02T18:48:25.464Z,8.60
2018-10-02T18:50:53.404Z,9.10
2018-10-02T18:53:21.436Z,9.13
2018-10-02T18:55:49.542Z,8.63
2018-10-02T18:58:17.686Z,8.90
2018-10-02T19:00:45.838Z,9.43
2018-10-02T19:03:13.966Z,9.43
2018-10-02T19:05:42.432Z,8.77
2018-10-02T19:08:10.374Z,9.33
2018-10-02T19:10:38.528Z,9.30
2018-10-02T19:13:06.475Z,9.60
2018-10-02T19:15:40.010Z,8.83
2018-10-02T19:18:07.991Z,10.20
2018-10-02T19:20:41.701Z,9.30
2018-10-02T19:23:09.813Z,15.23
2018-10-02T19:25:43.265Z,14.57
2018-10-02T19:28:11.537Z,14.53
2018-10-02T19:30:45.927Z,12.83
2018-10-02T19:33:13.895Z,13.37
2018-10-02T19:35:41.807Z,12.60
2018-10-02T19:38:15.290Z,12.50
2018-10-02T19:40:43.342Z,12.00
2018-10-02T19:43:11.443Z,11.13
2018-10-02T19:45:44.929Z,12.90
2018-10-02T19:48:15.852Z,13.53
2018-10-02T19:50:44.762Z,14.00
2018-10-02T19:53:12.770Z,13.60
2018-10-02T19:55:40.728Z,14.33
2018-10-02T19:58:08.661Z,14.23
2018-10-02T20:00:36.691Z,15.23
2018-10-02T20:03:05.216Z,15.80
2018-10-02T20:05:33.135Z,15.87
2018-10-02T20:08:01.211Z,15.13
2018-10-02T20:10:29.230Z,17.20
2018-10-02T20:12:57.234Z,17.47
2018-10-02T20:15:25.410Z,17.60
2018-10-02T20:17:54.537Z,18.57
2018-10-02T20:20:23.414Z,18.70
2018-10-02T20:22:52.819Z,20.20
2018-10-02T20:25:21.803Z,19.97
2018-10-02T20:27:49.999Z,22.30
2018-10-02T20:30:18.039Z,22.53
2018-10-02T20:32:46.148Z,24.23
2018-10-02T20:35:14.166Z,23.93
2018-10-02T20:37:42.161Z,24.30
2018-10-02T20:40:10.470Z,25.33
2018-10-02T20:42:38.392Z,25.13
2018-10-02T20:45:06.397Z,26.07
2018-10-02T20:47:34.402Z,25.53
2018-10-02T20:50:02.312Z,27.67
2018-10-02T20:52:30.329Z,27.33
2018-10-02T20:54:59.200Z,29.30
2018-10-02T20:57:27.448Z,28.10
2018-10-02T20:59:55.335Z,28.30
2018-10-02T21:02:23.248Z,29.30
2018-10-02T21:04:51.132Z,28.83
2018-10-02T21:07:19.074Z,30.47
2018-10-02T21:09:47.033Z,31.00
2018-10-02T21:12:15.119Z,31.27
2018-10-02T21:14:43.035Z,30.53
2018-10-02T21:17:11.048Z,30.33
2018-10-02T21:19:39.130Z,33.03
2018-10-02T21:22:07.189Z,30.47
2018-10-02T21:24:35.441Z,29.40
2018-10-02T21:27:03.455Z,31.20
2018-10-02T21:29:31.524Z,32.47
2018-10-02T21:31:59.503Z,30.17
2018-10-02T21:34:27.516Z,32.00
2018-10-02T21:36:55.467Z,28.93
2018-10-02T21:39:23.563Z,30.23
2018-10-02T21:41:51.420Z,32.10
2018-10-02T21:44:19.361Z,29.93
2018-10-02T21:46:47.382Z,33.30
2018-10-02T21:49:15.267Z,30.53
2018-10-02T21:51:43.214Z,32.43
2018-10-02T21:54:11.226Z,31.23
2018-10-02T21:56:39.815Z,31.17
2018-10-02T21:59:07.765Z,31.53
2018-10-02T22:01:35.698Z,30.90
2018-10-02T22:04:03.730Z,31.70
2018-10-02T22:06:31.714Z,31.03
2018-10-02T22:08:59.686Z,31.93
2018-10-02T22:11:27.896Z,29.63
2018-10-02T22:13:55.863Z,31.57
2018-10-02T22:16:23.832Z,31.27
2018-10-02T22:18:51.932Z,31.93
2018-10-02T22:21:21.152Z,29.77
2018-10-02T22:23:49.762Z,29.90
2018-10-02T22:26:17.981Z,30.93
2018-10-02T22:28:45.931Z,28.73
2018-10-02T22:31:14.048Z,28.47
2018-10-02T22:33:42.084Z,31.10
2018-10-02T22:36:10.036Z,27.53
2018-10-02T22:38:37.987Z,32.85
2018-10-02T22:41:06.246Z,28.77
2018-10-02T22:43:34.218Z,28.53
2018-10-02T22:46:02.140Z,28.20
2018-10-02T22:48:30.183Z,30.03
2018-10-02T22:50:58.228Z,29.93
2018-10-02T22:53:26.144Z,29.60
2018-10-02T22:55:54.166Z,28.33
2018-10-02T22:58:22.159Z,28.77
2018-10-02T23:00:50.101Z,27.33
2018-10-02T23:03:18.199Z,27.47
2018-10-02T23:05:46.168Z,29.00
2018-10-02T23:08:14.134Z,27.83
2018-10-02T23:10:42.097Z,27.97
2018-10-02T23:13:10.243Z,27.57
2018-10-02T23:15:38.192Z,27.77
2018-10-02T23:18:06.109Z,26.37
2018-10-02T23:20:35.237Z,27.10
2018-10-02T23:23:06.343Z,28.23
2018-10-02T23:25:34.550Z,27.43
2018-10-02T23:28:02.786Z,26.43
2018-10-02T23:30:30.869Z,27.00
2018-10-02T23:32:58.854Z,25.50
2018-10-02T23:35:27.915Z,25.20
2018-10-02T23:37:56.026Z,24.17
2018-10-02T23:40:24.264Z,25.37
2018-10-02T23:42:52.168Z,24.63
2018-10-02T23:45:20.678Z,24.63
2018-10-02T23:47:48.781Z,25.63
2018-10-02T23:50:16.812Z,25.37
2018-10-02T23:52:44.952Z,24.90
2018-10-02T23:55:13.016Z,24.70
2018-10-02T23:57:41.093Z,26.23
